createdAt,value
2023-03-19T00:00:20.844Z,9.44
2023-03-19T00:02:51.131Z,9.39
2023-03-19T00:05:18.343Z,9.41
2023-03-19T00:07:44.755Z,9.37
2023-03-19T00:10:11.596Z,9.54
2023-03-19T00:12:37.967Z,9.27
2023-03-19T00:15:04.798Z,9.42
2023-03-19T00:17:31.277Z,9.50
2023-03-19T00:19:57.666Z,9.88
2023-03-19T00:22:24.100Z,9.81
2023-03-19T00:24:50.495Z,9.77
2023-03-19T00:27:16.871Z,9.70
2023-03-19T00:29:43.239Z,9.69
2023-03-19T00:32:09.688Z,9.81
2023-03-19T00:34:36.731Z,9.81
2023-03-19T00:37:03.137Z,9.59
2023-03-19T00:39:29.584Z,9.25
2023-03-19T00:41:56.259Z,9.40
2023-03-19T00:44:22.675Z,9.61
2023-03-19T00:46:49.071Z,9.86
2023-03-19T00:49:15.447Z,9.96
2023-03-19T00:51:43.910Z,10.03
2023-03-19T00:54:12.016Z,10.02
2023-03-19T00:56:39.018Z,9.88
2023-03-19T00:59:05.574Z,9.80
2023-03-19T01:01:32.261Z,9.72
2023-03-19T01:03:59.244Z,9.74
2023-03-19T01:06:25.680Z,9.98
2023-03-19T01:08:52.042Z,10.10
2023-03-19T01:11:18.955Z,9.97
2023-03-19T01:13:45.426Z,10.00
2023-03-19T01:16:12.053Z,10.09
2023-03-19T01:18:38.606Z,10.12
2023-03-19T01:21:05.172Z,10.59
2023-03-19T01:23:31.852Z,10.76
2023-03-19T01:25:58.274Z,10.76
2023-03-19T01:28:24.648Z,10.75
2023-03-19T01:30:51.146Z,10.66
2023-03-19T01:33:19.889Z,10.59
2023-03-19T01:35:48.057Z,10.48
2023-03-19T01:38:14.691Z,10.38
2023-03-19T01:40:47.901Z,10.32
2023-03-19T01:43:18.550Z,10.36
2023-03-19T01:45:45.826Z,10.13
2023-03-19T01:48:34.243Z,10.08
2023-03-19T01:51:01.206Z,9.94
2023-03-19T01:53:30.058Z,9.95
2023-03-19T01:56:00.840Z,9.94
2023-03-19T01:58:27.791Z,9.87
2023-03-19T02:00:54.707Z,9.74
2023-03-19T02:03:22.018Z,9.72
2023-03-19T02:05:49.217Z,9.45
2023-03-19T02:08:17.076Z,9.65
2023-03-19T02:10:45.006Z,9.78
2023-03-19T02:13:12.201Z,9.75
2023-03-19T02:15:38.922Z,9.64
2023-03-19T02:18:05.954Z,9.57
2023-03-19T02:20:37.161Z,9.52
2023-03-19T02:23:22.222Z,9.47
2023-03-19T02:25:48.507Z,9.52
2023-03-19T02:28:17.540Z,9.48
2023-03-19T02:30:45.005Z,9.57
2023-03-19T02:33:13.421Z,9.56
2023-03-19T02:35:40.544Z,9.41
2023-03-19T02:38:07.140Z,9.35
2023-03-19T02:40:39.336Z,9.19
2023-03-19T02:43:06.264Z,9.08
2023-03-19T02:45:32.675Z,9.04
2023-03-19T02:47:59.970Z,9.04
2023-03-19T02:50:26.453Z,9.09
2023-03-19T02:52:53.293Z,8.87
2023-03-19T02:55:21.230Z,8.72
2023-03-19T02:57:47.663Z,8.70
2023-03-19T03:00:14.804Z,8.73
2023-03-19T03:02:41.579Z,8.59
2023-03-19T03:05:09.104Z,8.60
2023-03-19T03:07:36.071Z,8.55
2023-03-19T03:10:02.559Z,8.52
2023-03-19T03:12:28.934Z,8.49
2023-03-19T03:14:55.286Z,8.38
2023-03-19T03:17:21.677Z,8.51
2023-03-19T03:19:48.034Z,8.45
2023-03-19T03:22:14.474Z,8.55
2023-03-19T03:24:41.205Z,8.50
2023-03-19T03:27:08.170Z,8.62
2023-03-19T03:29:34.538Z,8.54
2023-03-19T03:32:01.098Z,8.63
2023-03-19T03:34:27.493Z,8.55
2023-03-19T03:36:53.889Z,8.57
2023-03-19T03:39:20.295Z,8.42
2023-03-19T03:41:46.670Z,8.49
2023-03-19T03:44:13.387Z,8.37
2023-03-19T03:46:39.812Z,8.45
2023-03-19T03:49:06.185Z,8.52
2023-03-19T03:51:32.846Z,8.48
2023-03-19T03:53:59.234Z,8.59
2023-03-19T03:56:26.073Z,8.66
2023-03-19T03:58:52.743Z,8.17
2023-03-19T04:01:19.546Z,7.92
2023-03-19T04:03:46.471Z,7.90
2023-03-19T04:06:15.108Z,7.87
2023-03-19T04:08:41.635Z,7.89
2023-03-19T04:11:08.992Z,7.90
2023-03-19T04:13:37.026Z,7.99
2023-03-19T04:16:07.994Z,8.02
2023-03-19T04:18:34.706Z,8.04
2023-03-19T04:21:01.377Z,8.06
2023-03-19T04:23:28.034Z,8.11
2023-03-19T04:25:59.349Z,7.96
2023-03-19T04:28:25.855Z,8.06
2023-03-19T04:30:52.259Z,8.00
2023-03-19T04:33:19.145Z,8.02
2023-03-19T04:35:45.566Z,8.16
2023-03-19T04:38:12.176Z,9.20
2023-03-19T04:40:38.547Z,9.59
2023-03-19T04:43:05.604Z,9.58
2023-03-19T04:45:31.990Z,9.74
2023-03-19T04:47:58.413Z,10.02
2023-03-19T04:50:24.948Z,10.25
2023-03-19T04:52:51.361Z,10.24
2023-03-19T04:55:17.996Z,10.36
2023-03-19T04:57:44.381Z,10.37
2023-03-19T05:00:11.355Z,10.13
2023-03-19T05:02:38.351Z,9.91
2023-03-19T05:05:04.877Z,9.77
2023-03-19T05:07:31.692Z,9.79
2023-03-19T05:09:58.067Z,9.91
2023-03-19T05:12:25.016Z,10.05
2023-03-19T05:14:51.412Z,10.08
2023-03-19T05:17:17.954Z,10.08
2023-03-19T05:19:44.492Z,10.03
2023-03-19T05:22:10.903Z,10.06
2023-03-19T05:24:37.280Z,9.86
2023-03-19T05:27:03.842Z,9.71
2023-03-19T05:29:30.260Z,9.93
2023-03-19T05:31:56.639Z,9.98
2023-03-19T05:34:23.422Z,10.09
2023-03-19T05:36:50.030Z,10.21
2023-03-19T05:39:16.452Z,10.41
2023-03-19T05:41:43.045Z,10.54
2023-03-19T05:44:09.431Z,10.65
2023-03-19T05:46:36.242Z,10.89
2023-03-19T05:49:02.968Z,10.97
2023-03-19T05:51:29.367Z,11.09
2023-03-19T05:53:55.736Z,11.03
2023-03-19T05:56:22.124Z,10.94
2023-03-19T05:58:48.510Z,10.87
2023-03-19T06:01:14.949Z,10.98
2023-03-19T06:03:41.516Z,10.98
2023-03-19T06:06:08.235Z,11.04
2023-03-19T06:08:34.689Z,10.92
2023-03-19T06:11:01.151Z,10.92
2023-03-19T06:13:27.538Z,10.99
2023-03-19T06:15:53.981Z,10.96
2023-03-19T06:18:20.469Z,11.06
2023-03-19T06:20:47.203Z,11.07
2023-03-19T06:23:16.213Z,11.15
2023-03-19T06:25:42.923Z,11.34
2023-03-19T06:28:09.318Z,11.59
2023-03-19T06:30:36.534Z,11.79
2023-03-19T06:33:03.357Z,11.90
2023-03-19T06:35:29.801Z,11.95
2023-03-19T06:37:56.212Z,11.84
2023-03-19T06:40:22.892Z,11.86
2023-03-19T06:42:49.310Z,11.94
2023-03-19T06:45:16.496Z,11.91
2023-03-19T06:47:43.495Z,12.10
2023-03-19T06:50:11.400Z,12.09
2023-03-19T06:52:38.195Z,12.11
2023-03-19T06:55:06.382Z,11.99
2023-03-19T06:57:32.761Z,11.83
2023-03-19T06:59:59.168Z,11.60
2023-03-19T07:02:26.263Z,11.55
2023-03-19T07:04:52.797Z,11.59
2023-03-19T07:07:19.422Z,11.57
2023-03-19T07:09:45.792Z,11.50
2023-03-19T07:12:12.350Z,11.60
2023-03-19T07:14:38.904Z,11.66
2023-03-19T07:17:05.584Z,11.69
2023-03-19T07:19:31.967Z,11.69
2023-03-19T07:21:58.336Z,11.79
2023-03-19T07:24:24.759Z,11.61
2023-03-19T07:26:51.551Z,11.67
2023-03-19T07:29:18.008Z,11.79
2023-03-19T07:31:44.531Z,11.95
2023-03-19T07:34:11.300Z,11.88
2023-03-19T07:36:37.698Z,12.08
2023-03-19T07:39:04.476Z,12.28
2023-03-19T07:41:31.315Z,12.41
2023-03-19T07:43:57.731Z,12.69
2023-03-19T07:46:24.188Z,12.80
2023-03-19T07:48:51.122Z,12.64
2023-03-19T07:51:17.511Z,12.83
2023-03-19T07:53:43.920Z,12.93
2023-03-19T07:56:11.497Z,12.66
2023-03-19T07:58:37.878Z,12.60
2023-03-19T08:01:04.789Z,12.64
2023-03-19T08:03:31.469Z,12.61
2023-03-19T08:05:58.038Z,12.57
2023-03-19T08:08:24.542Z,12.70
2023-03-19T08:10:54.267Z,12.64
2023-03-19T08:13:20.652Z,12.76
2023-03-19T08:15:47.037Z,12.81
2023-03-19T08:18:13.658Z,12.82
2023-03-19T08:20:40.214Z,12.79
2023-03-19T08:23:07.206Z,12.73
2023-03-19T08:25:33.635Z,12.62
2023-03-19T08:28:01.079Z,12.58
2023-03-19T08:30:27.730Z,12.13
2023-03-19T08:32:54.457Z,12.12
2023-03-19T08:35:21.171Z,11.86
2023-03-19T08:37:47.735Z,11.85
2023-03-19T08:40:14.381Z,12.01
2023-03-19T08:42:44.888Z,12.35
2023-03-19T08:45:13.064Z,12.38
2023-03-19T08:47:39.761Z,12.78
2023-03-19T08:50:06.759Z,13.03
2023-03-19T08:52:33.638Z,13.08
2023-03-19T08:55:00.002Z,13.14
2023-03-19T08:57:26.382Z,12.98
2023-03-19T08:59:53.097Z,12.85
2023-03-19T09:02:19.736Z,13.02
2023-03-19T09:04:46.193Z,12.98
2023-03-19T09:07:13.265Z,12.72
2023-03-19T09:09:40.775Z,12.50
2023-03-19T09:12:07.844Z,12.76
2023-03-19T09:14:34.817Z,12.86
2023-03-19T09:17:01.247Z,12.92
2023-03-19T09:19:27.737Z,12.92
2023-03-19T09:21:54.202Z,12.85
2023-03-19T09:24:20.586Z,12.97
2023-03-19T09:26:47.044Z,12.94
2023-03-19T09:29:13.859Z,13.20
2023-03-19T09:31:40.290Z,13.15
2023-03-19T09:34:07.207Z,13.16
2023-03-19T09:36:33.590Z,13.08
2023-03-19T09:38:59.961Z,12.94
2023-03-19T09:41:37.740Z,13.03
2023-03-19T09:44:04.898Z,13.12
2023-03-19T09:46:46.321Z,13.11
2023-03-19T09:49:16.575Z,12.95
2023-03-19T09:52:17.867Z,13.13
2023-03-19T09:54:48.800Z,13.26
2023-03-19T09:57:17.304Z,13.45
2023-03-19T09:59:43.790Z,13.37
2023-03-19T10:02:22.274Z,13.52
2023-03-19T10:05:08.430Z,13.42
2023-03-19T10:08:04.662Z,13.26
2023-03-19T10:10:56.013Z,13.45
2023-03-19T10:13:25.441Z,13.84
2023-03-19T10:15:52.998Z,13.64
2023-03-19T10:18:26.357Z,13.80
2023-03-19T10:21:03.663Z,13.63
2023-03-19T10:23:39.525Z,13.94
2023-03-19T10:26:09.941Z,13.77
2023-03-19T10:28:36.401Z,13.99
2023-03-19T10:31:21.670Z,14.10
2023-03-19T10:34:09.437Z,14.40
2023-03-19T10:36:36.942Z,14.62
2023-03-19T10:39:06.782Z,14.55
2023-03-19T10:41:41.284Z,14.64
2023-03-19T10:44:16.181Z,14.94
2023-03-19T10:46:42.757Z,14.71
2023-03-19T10:49:13.531Z,14.77
2023-03-19T10:51:40.138Z,14.91
2023-03-19T10:54:26.674Z,15.06
2023-03-19T10:56:58.217Z,15.21
2023-03-19T10:59:30.632Z,15.47
2023-03-19T11:01:59.358Z,15.84
2023-03-19T11:04:27.717Z,15.69
2023-03-19T11:07:02.984Z,15.52
2023-03-19T11:09:35.846Z,15.78
2023-03-19T11:12:08.591Z,16.26
2023-03-19T11:14:37.781Z,16.86
2023-03-19T11:17:25.661Z,16.62
2023-03-19T11:19:57.717Z,17.02
2023-03-19T11:22:34.002Z,16.52
2023-03-19T11:25:02.640Z,16.37
2023-03-19T11:27:34.893Z,16.11
2023-03-19T11:30:02.882Z,16.39
2023-03-19T11:32:48.325Z,16.47
2023-03-19T11:35:21.879Z,16.62
2023-03-19T11:38:00.800Z,15.82
2023-03-19T11:40:39.845Z,16.05
2023-03-19T11:43:29.023Z,16.11
2023-03-19T11:46:07.293Z,16.24
2023-03-19T11:48:52.125Z,16.00
2023-03-19T11:51:28.697Z,15.77
2023-03-19T11:54:08.884Z,15.57
2023-03-19T11:56:43.655Z,15.23
2023-03-19T11:59:28.472Z,15.23
2023-03-19T12:02:13.404Z,15.44
2023-03-19T12:05:07.894Z,15.85
2023-03-19T12:07:53.564Z,15.91
2023-03-19T12:10:28.637Z,16.18
2023-03-19T12:13:08.322Z,16.81
2023-03-19T12:16:01.208Z,16.37
2023-03-19T12:19:25.623Z,17.03
2023-03-19T12:21:58.331Z,18.24
2023-03-19T12:24:37.929Z,19.27
2023-03-19T12:27:22.397Z,19.68
2023-03-19T12:30:02.022Z,17.74
2023-03-19T12:32:50.297Z,17.17
2023-03-19T12:35:18.932Z,17.04
2023-03-19T12:37:54.306Z,16.64
2023-03-19T12:40:27.266Z,15.97
2023-03-19T12:42:57.711Z,15.78
2023-03-19T12:45:39.215Z,15.27
2023-03-19T12:48:19.122Z,14.78
2023-03-19T12:50:49.851Z,14.94
2023-03-19T12:53:28.709Z,14.64
2023-03-19T12:55:58.432Z,14.31
2023-03-19T12:58:34.178Z,13.87
2023-03-19T13:01:08.793Z,13.84
2023-03-19T13:04:12.079Z,12.64
2023-03-19T13:06:48.140Z,12.32
2023-03-19T13:09:28.917Z,11.97
2023-03-19T13:12:00.661Z,11.97
2023-03-19T13:14:35.215Z,11.75
2023-03-19T13:17:09.651Z,12.15
2023-03-19T13:19:46.147Z,12.29
2023-03-19T13:22:15.967Z,12.53
2023-03-19T13:24:45.989Z,12.59
2023-03-19T13:27:34.888Z,12.32
2023-03-19T13:30:17.693Z,13.17
2023-03-19T13:32:49.646Z,13.45
2023-03-19T13:35:36.459Z,14.60
2023-03-19T13:38:17.976Z,14.85
2023-03-19T13:40:58.261Z,15.33
2023-03-19T13:43:28.742Z,14.82
2023-03-19T13:46:15.686Z,14.55
2023-03-19T13:48:45.164Z,14.49
2023-03-19T13:51:21.216Z,14.48
2023-03-19T13:54:16.197Z,15.42
2023-03-19T13:57:14.646Z,16.45
2023-03-19T13:59:43.842Z,17.19
2023-03-19T14:02:22.464Z,17.36
2023-03-19T14:05:04.029Z,16.89
2023-03-19T14:07:42.145Z,15.79
2023-03-19T14:10:15.933Z,16.58
2023-03-19T14:12:43.512Z,16.36
2023-03-19T14:15:09.835Z,15.89
2023-03-19T14:17:42.739Z,15.47
2023-03-19T14:20:16.682Z,14.94
2023-03-19T14:23:16.862Z,15.18
2023-03-19T14:25:58.329Z,15.05
2023-03-19T14:28:46.146Z,15.13
2023-03-19T14:31:21.662Z,14.61
2023-03-19T14:33:56.855Z,14.83
2023-03-19T14:36:23.291Z,14.91
2023-03-19T14:38:52.998Z,14.72
2023-03-19T14:41:23.877Z,14.82
2023-03-19T14:43:53.443Z,14.71
2023-03-19T14:46:28.702Z,15.00
2023-03-19T14:48:58.029Z,14.82
2023-03-19T14:51:36.245Z,14.83
2023-03-19T14:54:30.873Z,14.87
2023-03-19T14:56:57.764Z,14.91
2023-03-19T14:59:24.165Z,15.05
2023-03-19T15:01:52.849Z,14.93
2023-03-19T15:04:22.564Z,15.10
2023-03-19T15:06:58.861Z,15.21
2023-03-19T15:09:31.515Z,15.33
2023-03-19T15:12:13.159Z,15.34
2023-03-19T15:14:42.505Z,15.39
2023-03-19T15:17:38.946Z,15.48
2023-03-19T15:20:20.104Z,15.85
2023-03-19T15:22:54.421Z,15.83
2023-03-19T15:25:21.087Z,16.01
2023-03-19T15:28:04.630Z,16.31
2023-03-19T15:30:32.617Z,16.08
2023-03-19T15:33:12.077Z,15.98
2023-03-19T15:35:44.047Z,15.77
2023-03-19T15:38:12.369Z,15.70
2023-03-19T15:40:40.973Z,15.69
2023-03-19T15:43:09.229Z,15.52
2023-03-19T15:45:35.862Z,15.31
2023-03-19T15:48:07.407Z,15.30
2023-03-19T15:50:36.454Z,15.26
2023-03-19T15:53:16.187Z,15.58
2023-03-19T15:55:42.862Z,15.73
2023-03-19T15:58:16.678Z,15.83
2023-03-19T16:00:43.349Z,15.89
2023-03-19T16:03:17.478Z,15.70
2023-03-19T16:05:43.961Z,15.59
2023-03-19T16:08:19.834Z,15.75
2023-03-19T16:10:47.336Z,15.72
2023-03-19T16:13:32.773Z,15.71
2023-03-19T16:16:08.625Z,15.44
2023-03-19T16:18:50.482Z,15.43
2023-03-19T16:21:23.394Z,15.27
2023-03-19T16:24:19.206Z,15.27
2023-03-19T16:26:47.040Z,15.03
2023-03-19T16:29:27.865Z,15.09
2023-03-19T16:32:01.658Z,14.98
2023-03-19T16:34:33.907Z,14.95
2023-03-19T16:37:01.074Z,14.93
2023-03-19T16:39:30.462Z,14.99
2023-03-19T16:42:15.661Z,14.85
2023-03-19T16:44:44.325Z,14.77
2023-03-19T16:47:11.808Z,14.84
2023-03-19T16:49:38.307Z,14.91
2023-03-19T16:52:05.184Z,14.92
2023-03-19T16:54:31.600Z,14.94
2023-03-19T16:56:57.998Z,15.31
2023-03-19T16:59:28.479Z,15.21
2023-03-19T17:01:54.923Z,14.92
2023-03-19T17:04:21.724Z,14.83
2023-03-19T17:06:48.238Z,14.69
2023-03-19T17:09:14.652Z,14.51
2023-03-19T17:11:42.589Z,14.37
2023-03-19T17:14:19.160Z,14.36
2023-03-19T17:16:50.422Z,14.14
2023-03-19T17:19:35.802Z,14.24
2023-03-19T17:22:02.290Z,14.18
2023-03-19T17:24:31.366Z,14.11
2023-03-19T17:26:59.866Z,14.07
2023-03-19T17:29:26.779Z,14.02
2023-03-19T17:31:54.698Z,14.00
2023-03-19T17:34:23.426Z,13.97
2023-03-19T17:36:52.384Z,13.92
2023-03-19T17:39:19.295Z,13.91
2023-03-19T17:41:46.183Z,14.00
2023-03-19T17:44:14.409Z,14.10
2023-03-19T17:46:43.298Z,14.13
2023-03-19T17:49:28.796Z,13.92
2023-03-19T17:51:55.988Z,13.80
2023-03-19T17:54:22.667Z,13.71
2023-03-19T17:56:49.440Z,13.68
2023-03-19T17:59:15.851Z,13.63
2023-03-19T18:01:47.266Z,13.64
2023-03-19T18:04:15.763Z,13.76
2023-03-19T18:06:44.883Z,13.80
2023-03-19T18:09:25.928Z,13.80
2023-03-19T18:11:52.338Z,13.78
2023-03-19T18:14:18.819Z,13.64
2023-03-19T18:16:46.451Z,13.29
2023-03-19T18:19:20.646Z,13.45
2023-03-19T18:21:47.123Z,13.51
2023-03-19T18:24:13.578Z,13.50
2023-03-19T18:26:40.114Z,13.47
2023-03-19T18:29:06.545Z,13.46
2023-03-19T18:31:33.205Z,13.34
2023-03-19T18:34:02.314Z,13.37
2023-03-19T18:36:31.104Z,13.37
2023-03-19T18:38:57.967Z,13.33
2023-03-19T18:41:25.996Z,13.46
2023-03-19T18:43:52.382Z,13.36
2023-03-19T18:46:26.730Z,13.06
2023-03-19T18:49:02.479Z,13.31
2023-03-19T18:51:28.960Z,12.99
2023-03-19T18:53:55.998Z,13.04
2023-03-19T18:56:29.406Z,13.19
2023-03-19T18:58:56.779Z,13.06
2023-03-19T19:01:23.750Z,13.29
2023-03-19T19:03:50.895Z,13.38
2023-03-19T19:06:26.337Z,12.92
2023-03-19T19:08:54.733Z,12.99
2023-03-19T19:11:21.737Z,12.66
2023-03-19T19:14:06.771Z,12.74
2023-03-19T19:16:38.064Z,12.78
2023-03-19T19:19:11.355Z,13.01
2023-03-19T19:21:37.737Z,13.02
2023-03-19T19:24:04.369Z,12.75
2023-03-19T19:26:31.042Z,12.67
2023-03-19T19:28:59.743Z,12.82
2023-03-19T19:31:28.646Z,12.75
2023-03-19T19:33:55.718Z,13.08
2023-03-19T19:36:23.797Z,12.75
2023-03-19T19:38:51.973Z,12.59
2023-03-19T19:41:24.247Z,12.85
2023-03-19T19:43:53.412Z,12.91
2023-03-19T19:46:22.870Z,13.09
2023-03-19T19:48:49.313Z,13.13
2023-03-19T19:51:20.692Z,13.23
2023-03-19T19:53:47.432Z,13.19
2023-03-19T19:56:18.699Z,13.14
2023-03-19T19:58:45.967Z,13.17
2023-03-19T20:01:22.629Z,13.10
2023-03-19T20:03:49.820Z,12.75
2023-03-19T20:06:16.420Z,12.73
2023-03-19T20:08:42.957Z,12.77
2023-03-19T20:11:18.212Z,12.78
2023-03-19T20:13:49.794Z,12.63
2023-03-19T20:16:17.134Z,12.65
2023-03-19T20:18:44.987Z,12.41
2023-03-19T20:21:12.511Z,12.58
2023-03-19T20:23:41.313Z,12.25
2023-03-19T20:26:12.122Z,12.26
2023-03-19T20:28:38.529Z,12.32
2023-03-19T20:31:05.244Z,12.47
2023-03-19T20:33:32.298Z,12.17
2023-03-19T20:35:58.739Z,12.04
2023-03-19T20:38:27.080Z,12.27
2023-03-19T20:40:55.612Z,12.30
2023-03-19T20:43:33.369Z,12.18
2023-03-19T20:46:02.766Z,12.07
2023-03-19T20:48:30.543Z,11.99
2023-03-19T20:50:57.126Z,12.12
2023-03-19T20:53:23.623Z,11.99
2023-03-19T20:55:50.380Z,12.04
2023-03-19T20:58:31.435Z,11.81
2023-03-19T21:00:58.870Z,11.68
2023-03-19T21:03:27.304Z,11.79
2023-03-19T21:05:57.949Z,11.85
2023-03-19T21:08:32.246Z,11.98
2023-03-19T21:10:58.700Z,11.76
2023-03-19T21:13:25.888Z,11.64
2023-03-19T21:15:53.872Z,11.43
2023-03-19T21:18:20.652Z,11.56
2023-03-19T21:20:49.495Z,11.49
2023-03-19T21:23:24.591Z,11.68
2023-03-19T21:25:51.091Z,11.76
2023-03-19T21:28:25.965Z,11.56
2023-03-19T21:30:53.841Z,11.66
2023-03-19T21:33:31.532Z,11.44
2023-03-19T21:35:59.091Z,11.60
2023-03-19T21:38:25.792Z,11.73
2023-03-19T21:40:56.730Z,11.73
2023-03-19T21:43:34.934Z,11.87
2023-03-19T21:46:13.831Z,11.83
2023-03-19T21:48:44.275Z,11.82
2023-03-19T21:51:17.162Z,11.83
2023-03-19T21:53:45.546Z,11.88
2023-03-19T21:56:17.604Z,11.82
2023-03-19T21:58:43.965Z,11.67
2023-03-19T22:01:17.876Z,11.56
2023-03-19T22:03:45.095Z,11.43
2023-03-19T22:06:12.291Z,11.42
2023-03-19T22:08:38.693Z,11.40
2023-03-19T22:11:16.622Z,11.27
2023-03-19T22:13:43.553Z,11.24
2023-03-19T22:16:20.271Z,11.29
2023-03-19T22:18:47.580Z,11.03
2023-03-19T22:21:16.163Z,11.03
2023-03-19T22:23:42.591Z,11.10
2023-03-19T22:26:23.340Z,11.15
2023-03-19T22:28:49.884Z,11.06
2023-03-19T22:31:16.451Z,10.94
2023-03-19T22:33:43.146Z,10.81
2023-03-19T22:36:13.803Z,10.91
2023-03-19T22:38:41.180Z,10.98
2023-03-19T22:41:47.718Z,11.28
2023-03-19T22:44:28.696Z,11.31
2023-03-19T22:46:56.837Z,11.46
2023-03-19T22:49:24.532Z,11.54
2023-03-19T22:51:51.229Z,11.60
2023-03-19T22:54:17.608Z,11.62
2023-03-19T22:56:44.037Z,11.44
2023-03-19T22:59:10.437Z,11.15
2023-03-19T23:01:41.869Z,11.16
2023-03-19T23:04:21.268Z,11.25
2023-03-19T23:06:48.077Z,11.32
2023-03-19T23:09:24.072Z,10.96
2023-03-19T23:11:51.527Z,11.20
2023-03-19T23:14:29.188Z,10.96
2023-03-19T23:17:01.764Z,10.64
2023-03-19T23:19:30.547Z,10.54
2023-03-19T23:21:58.643Z,10.57
2023-03-19T23:24:25.362Z,10.49
2023-03-19T23:26:54.005Z,10.57
2023-03-19T23:29:41.804Z,10.27
2023-03-19T23:32:10.648Z,10.24
2023-03-19T23:34:49.683Z,10.20
2023-03-19T23:37:24.238Z,10.44
2023-03-19T23:39:51.006Z,10.43
2023-03-19T23:42:27.455Z,10.21
2023-03-19T23:44:56.824Z,10.39
2023-03-19T23:47:23.250Z,10.32
2023-03-19T23:49:49.625Z,10.44
2023-03-19T23:52:16.060Z,9.95
2023-03-19T23:54:42.431Z,10.22
2023-03-19T23:57:13.263Z,10.05
2023-03-19T23:59:41.901Z,10.08
